sensor_id;sensor_type;location;lat;lon;timestamp;pressure;altitude;pressure_sealevel;temperature;humidity
39223;BME280;24936;46.328;11.026;2023-03-16T00:02:23;94490.84;;;-1.83;55.02
39223;BME280;24936;46.328;11.026;2023-03-16T00:04:49;94492.63;;;-2.06;55.74
39223;BME280;24936;46.328;11.026;2023-03-16T00:07:15;94493.31;;;-2.23;58.30
39223;BME280;24936;46.328;11.026;2023-03-16T00:09:40;94497.47;;;-1.98;56.20
39223;BME280;24936;46.328;11.026;2023-03-16T00:12:11;94493.88;;;-1.94;56.70
39223;BME280;24936;46.328;11.026;2023-03-16T00:14:46;94498.84;;;-2.10;57.63
39223;BME280;24936;46.328;11.026;2023-03-16T00:17:14;94504.69;;;-2.06;57.26
39223;BME280;24936;46.328;11.026;2023-03-16T00:19:46;94500.59;;;-1.90;55.75
39223;BME280;24936;46.328;11.026;2023-03-16T00:22:15;94498.75;;;-1.88;54.48
39223;BME280;24936;46.328;11.026;2023-03-16T00:24:41;94502.25;;;-2.32;58.96
39223;BME280;24936;46.328;11.026;2023-03-16T00:27:14;94505.84;;;-2.36;60.01
39223;BME280;24936;46.328;11.026;2023-03-16T00:29:44;94502.69;;;-2.42;60.04
39223;BME280;24936;46.328;11.026;2023-03-16T00:32:15;94499.91;;;-2.16;57.72
39223;BME280;24936;46.328;11.026;2023-03-16T00:34:44;94501.50;;;-2.56;62.43
39223;BME280;24936;46.328;11.026;2023-03-16T00:37:12;94502.22;;;-2.74;62.48
39223;BME280;24936;46.328;11.026;2023-03-16T00:39:40;94505.88;;;-2.80;63.71
39223;BME280;24936;46.328;11.026;2023-03-16T00:42:07;94502.94;;;-2.49;60.59
39223;BME280;24936;46.328;11.026;2023-03-16T00:44:34;94503.91;;;-2.51;59.92
39223;BME280;24936;46.328;11.026;2023-03-16T00:47:01;94493.91;;;-2.16;56.00
39223;BME280;24936;46.328;11.026;2023-03-16T00:49:26;94503.72;;;-2.04;55.04
39223;BME280;24936;46.328;11.026;2023-03-16T00:51:54;94502.56;;;-2.39;58.54
39223;BME280;24936;46.328;11.026;2023-03-16T00:54:20;94502.34;;;-2.55;57.18
39223;BME280;24936;46.328;11.026;2023-03-16T00:56:46;94504.91;;;-2.55;57.97
39223;BME280;24936;46.328;11.026;2023-03-16T00:59:12;94496.22;;;-2.75;59.41
39223;BME280;24936;46.328;11.026;2023-03-16T01:01:39;94494.34;;;-2.71;61.50
39223;BME280;24936;46.328;11.026;2023-03-16T01:04:06;94496.75;;;-2.89;61.30
39223;BME280;24936;46.328;11.026;2023-03-16T01:06:31;94489.81;;;-2.87;60.21
39223;BME280;24936;46.328;11.026;2023-03-16T01:09:00;94497.50;;;-3.09;62.19
39223;BME280;24936;46.328;11.026;2023-03-16T01:11:27;94493.84;;;-3.03;63.05
39223;BME280;24936;46.328;11.026;2023-03-16T01:13:52;94490.94;;;-2.72;60.93
39223;BME280;24936;46.328;11.026;2023-03-16T01:16:18;94481.94;;;-2.84;61.04
39223;BME280;24936;46.328;11.026;2023-03-16T01:18:44;94487.47;;;-2.93;61.13
39223;BME280;24936;46.328;11.026;2023-03-16T01:21:10;94485.41;;;-2.85;58.66
39223;BME280;24936;46.328;11.026;2023-03-16T01:23:38;94471.94;;;-3.14;61.59
39223;BME280;24936;46.328;11.026;2023-03-16T01:26:05;94477.94;;;-2.91;61.17
39223;BME280;24936;46.328;11.026;2023-03-16T01:28:31;94473.03;;;-2.75;60.05
39223;BME280;24936;46.328;11.026;2023-03-16T01:31:06;94472.41;;;-2.82;60.70
39223;BME280;24936;46.328;11.026;2023-03-16T01:33:34;94479.06;;;-2.98;61.19
39223;BME280;24936;46.328;11.026;2023-03-16T01:36:01;94468.69;;;-3.19;64.34
39223;BME280;24936;46.328;11.026;2023-03-16T01:38:28;94485.88;;;-2.97;62.72
39223;BME280;24936;46.328;11.026;2023-03-16T01:40:54;94488.13;;;-3.12;63.09
39223;BME280;24936;46.328;11.026;2023-03-16T01:43:25;94479.75;;;-3.17;64.25
39223;BME280;24936;46.328;11.026;2023-03-16T01:48:21;94472.81;;;-3.15;63.32
39223;BME280;24936;46.328;11.026;2023-03-16T01:50:49;94477.09;;;-2.92;61.51
39223;BME280;24936;46.328;11.026;2023-03-16T01:53:17;94471.63;;;-2.84;60.95
39223;BME280;24936;46.328;11.026;2023-03-16T01:55:43;94462.28;;;-3.09;61.80
39223;BME280;24936;46.328;11.026;2023-03-16T01:58:10;94477.34;;;-2.75;60.11
39223;BME280;24936;46.328;11.026;2023-03-16T02:00:39;94465.22;;;-3.18;61.95
39223;BME280;24936;46.328;11.026;2023-03-16T02:03:14;94462.69;;;-2.97;61.44
39223;BME280;24936;46.328;11.026;2023-03-16T02:05:55;94469.38;;;-2.69;59.54
39223;BME280;24936;46.328;11.026;2023-03-16T02:08:23;94470.22;;;-2.91;61.08
39223;BME280;24936;46.328;11.026;2023-03-16T02:10:49;94469.00;;;-3.04;62.67
39223;BME280;24936;46.328;11.026;2023-03-16T02:13:21;94473.59;;;-3.36;63.40
39223;BME280;24936;46.328;11.026;2023-03-16T02:15:47;94477.13;;;-3.39;64.53
39223;BME280;24936;46.328;11.026;2023-03-16T02:21:44;94476.78;;;-3.30;63.17
39223;BME280;24936;46.328;11.026;2023-03-16T02:24:13;94477.84;;;-3.59;64.86
39223;BME280;24936;46.328;11.026;2023-03-16T02:32:13;94467.31;;;-3.05;61.89
39223;BME280;24936;46.328;11.026;2023-03-16T02:34:40;94466.78;;;-3.14;63.09
39223;BME280;24936;46.328;11.026;2023-03-16T02:37:06;94462.03;;;-3.25;62.46
39223;BME280;24936;46.328;11.026;2023-03-16T02:39:33;94475.31;;;-3.61;65.43
39223;BME280;24936;46.328;11.026;2023-03-16T02:41:59;94466.94;;;-3.91;68.31
39223;BME280;24936;46.328;11.026;2023-03-16T02:44:36;94454.97;;;-4.18;67.72
39223;BME280;24936;46.328;11.026;2023-03-16T02:47:08;94469.56;;;-4.18;68.48
39223;BME280;24936;46.328;11.026;2023-03-16T02:49:37;94467.56;;;-4.10;69.69
39223;BME280;24936;46.328;11.026;2023-03-16T02:52:05;94472.34;;;-3.99;68.01
39223;BME280;24936;46.328;11.026;2023-03-16T02:54:31;94474.91;;;-3.48;64.68
39223;BME280;24936;46.328;11.026;2023-03-16T02:56:57;94482.13;;;-3.60;65.98
39223;BME280;24936;46.328;11.026;2023-03-16T02:59:22;94488.59;;;-3.72;66.38
39223;BME280;24936;46.328;11.026;2023-03-16T03:01:48;94483.75;;;-4.06;68.73
39223;BME280;24936;46.328;11.026;2023-03-16T03:04:13;94479.91;;;-3.69;63.92
39223;BME280;24936;46.328;11.026;2023-03-16T03:06:39;94483.56;;;-3.51;61.73
39223;BME280;24936;46.328;11.026;2023-03-16T03:09:06;94485.91;;;-3.94;68.22
39223;BME280;24936;46.328;11.026;2023-03-16T03:11:32;94487.19;;;-3.82;67.18
39223;BME280;24936;46.328;11.026;2023-03-16T03:13:57;94496.31;;;-3.48;64.68
39223;BME280;24936;46.328;11.026;2023-03-16T03:16:23;94494.69;;;-3.50;64.62
39223;BME280;24936;46.328;11.026;2023-03-16T03:18:49;94503.84;;;-3.42;63.62
39223;BME280;24936;46.328;11.026;2023-03-16T03:21:17;94500.84;;;-3.80;65.83
39223;BME280;24936;46.328;11.026;2023-03-16T03:23:42;94506.03;;;-4.07;67.18
39223;BME280;24936;46.328;11.026;2023-03-16T03:26:11;94499.44;;;-4.14;66.89
39223;BME280;24936;46.328;11.026;2023-03-16T03:28:39;94504.91;;;-3.73;65.12
39223;BME280;24936;46.328;11.026;2023-03-16T03:31:04;94498.16;;;-3.51;64.13
39223;BME280;24936;46.328;11.026;2023-03-16T03:33:30;94505.94;;;-3.05;60.28
39223;BME280;24936;46.328;11.026;2023-03-16T03:35:58;94503.50;;;-3.32;61.85
39223;BME280;24936;46.328;11.026;2023-03-16T03:38:25;94502.97;;;-3.91;67.05
39223;BME280;24936;46.328;11.026;2023-03-16T03:40:51;94508.31;;;-4.24;68.13
39223;BME280;24936;46.328;11.026;2023-03-16T03:43:17;94502.50;;;-4.30;67.89
39223;BME280;24936;46.328;11.026;2023-03-16T03:45:43;94510.88;;;-4.24;68.04
39223;BME280;24936;46.328;11.026;2023-03-16T03:54:45;94512.53;;;-3.70;64.74
39223;BME280;24936;46.328;11.026;2023-03-16T03:57:10;94515.66;;;-3.61;63.87
39223;BME280;24936;46.328;11.026;2023-03-16T03:59:41;94520.16;;;-3.93;65.06
39223;BME280;24936;46.328;11.026;2023-03-16T04:02:12;94519.22;;;-4.16;67.24
39223;BME280;24936;46.328;11.026;2023-03-16T04:04:38;94518.63;;;-3.97;66.00
39223;BME280;24936;46.328;11.026;2023-03-16T04:07:04;94517.34;;;-4.11;66.65
39223;BME280;24936;46.328;11.026;2023-03-16T04:09:30;94521.81;;;-4.18;67.67
39223;BME280;24936;46.328;11.026;2023-03-16T04:12:03;94529.50;;;-4.16;67.36
39223;BME280;24936;46.328;11.026;2023-03-16T04:14:30;94532.22;;;-3.95;64.71
39223;BME280;24936;46.328;11.026;2023-03-16T04:16:56;94529.50;;;-4.16;66.92
39223;BME280;24936;46.328;11.026;2023-03-16T04:19:23;94530.88;;;-4.06;67.68
39223;BME280;24936;46.328;11.026;2023-03-16T04:21:49;94531.72;;;-4.05;66.62
39223;BME280;24936;46.328;11.026;2023-03-16T04:24:15;94535.69;;;-3.96;66.08
39223;BME280;24936;46.328;11.026;2023-03-16T04:26:42;94536.47;;;-3.93;65.37
39223;BME280;24936;46.328;11.026;2023-03-16T04:29:14;94536.56;;;-3.71;63.03
39223;BME280;24936;46.328;11.026;2023-03-16T04:31:43;94527.34;;;-3.76;63.00
39223;BME280;24936;46.328;11.026;2023-03-16T04:34:08;94531.09;;;-4.12;65.88
39223;BME280;24936;46.328;11.026;2023-03-16T04:36:36;94529.44;;;-4.15;67.13
39223;BME280;24936;46.328;11.026;2023-03-16T04:39:01;94531.44;;;-4.24;66.37
39223;BME280;24936;46.328;11.026;2023-03-16T04:41:27;94528.34;;;-3.82;62.88
39223;BME280;24936;46.328;11.026;2023-03-16T04:43:52;94522.06;;;-3.48;60.17
39223;BME280;24936;46.328;11.026;2023-03-16T04:46:18;94535.69;;;-3.96;63.57
39223;BME280;24936;46.328;11.026;2023-03-16T04:48:43;94535.13;;;-4.32;66.60
39223;BME280;24936;46.328;11.026;2023-03-16T04:51:08;94539.81;;;-4.45;68.67
39223;BME280;24936;46.328;11.026;2023-03-16T04:53:35;94546.75;;;-4.47;68.02
39223;BME280;24936;46.328;11.026;2023-03-16T04:56:00;94531.50;;;-4.53;68.06
39223;BME280;24936;46.328;11.026;2023-03-16T04:58:25;94540.34;;;-4.35;67.69
39223;BME280;24936;46.328;11.026;2023-03-16T05:00:51;94545.00;;;-4.46;67.56
39223;BME280;24936;46.328;11.026;2023-03-16T05:03:17;94541.00;;;-4.28;67.42
39223;BME280;24936;46.328;11.026;2023-03-16T05:05:45;94535.03;;;-4.28;67.94
39223;BME280;24936;46.328;11.026;2023-03-16T05:08:10;94526.31;;;-4.24;67.93
39223;BME280;24936;46.328;11.026;2023-03-16T05:10:36;94527.16;;;-4.24;67.26
39223;BME280;24936;46.328;11.026;2023-03-16T05:13:03;94530.47;;;-4.20;66.59
39223;BME280;24936;46.328;11.026;2023-03-16T05:15:29;94531.19;;;-4.43;66.58
39223;BME280;24936;46.328;11.026;2023-03-16T05:17:54;94544.41;;;-4.54;67.86
39223;BME280;24936;46.328;11.026;2023-03-16T05:20:23;94536.94;;;-4.62;67.66
39223;BME280;24936;46.328;11.026;2023-03-16T05:22:49;94539.34;;;-4.57;67.94
39223;BME280;24936;46.328;11.026;2023-03-16T05:25:16;94541.03;;;-4.56;69.81
39223;BME280;24936;46.328;11.026;2023-03-16T05:27:46;94545.75;;;-4.42;67.13
39223;BME280;24936;46.328;11.026;2023-03-16T05:30:13;94548.38;;;-4.44;67.00
39223;BME280;24936;46.328;11.026;2023-03-16T05:32:40;94548.78;;;-4.58;69.44
39223;BME280;24936;46.328;11.026;2023-03-16T05:35:06;94545.59;;;-4.38;67.74
39223;BME280;24936;46.328;11.026;2023-03-16T05:37:32;94545.88;;;-4.19;66.52
39223;BME280;24936;46.328;11.026;2023-03-16T05:39:58;94554.09;;;-4.36;68.55
39223;BME280;24936;46.328;11.026;2023-03-16T05:42:24;94560.28;;;-4.41;70.06
39223;BME280;24936;46.328;11.026;2023-03-16T05:44:52;94559.94;;;-4.31;68.59
39223;BME280;24936;46.328;11.026;2023-03-16T05:47:18;94570.22;;;-4.04;67.19
39223;BME280;24936;46.328;11.026;2023-03-16T05:49:44;94572.59;;;-4.24;68.84
39223;BME280;24936;46.328;11.026;2023-03-16T05:52:10;94570.41;;;-4.10;67.22
39223;BME280;24936;46.328;11.026;2023-03-16T05:54:35;94577.56;;;-4.18;68.30
39223;BME280;24936;46.328;11.026;2023-03-16T05:57:01;94576.66;;;-4.17;68.73
39223;BME280;24936;46.328;11.026;2023-03-16T05:59:26;94582.38;;;-4.09;68.40
39223;BME280;24936;46.328;11.026;2023-03-16T06:01:51;94581.81;;;-4.17;68.89
39223;BME280;24936;46.328;11.026;2023-03-16T06:04:17;94590.34;;;-4.17;68.80
39223;BME280;24936;46.328;11.026;2023-03-16T06:06:42;94591.84;;;-4.09;68.36
39223;BME280;24936;46.328;11.026;2023-03-16T06:09:08;94591.50;;;-3.98;67.45
39223;BME280;24936;46.328;11.026;2023-03-16T06:11:33;94591.63;;;-4.03;67.82
39223;BME280;24936;46.328;11.026;2023-03-16T06:13:59;94599.34;;;-4.03;68.48
39223;BME280;24936;46.328;11.026;2023-03-16T06:16:25;94594.41;;;-4.09;68.29
39223;BME280;24936;46.328;11.026;2023-03-16T06:19:01;94598.06;;;-4.17;68.76
39223;BME280;24936;46.328;11.026;2023-03-16T06:21:26;94600.38;;;-4.09;68.52
39223;BME280;24936;46.328;11.026;2023-03-16T06:23:51;94607.38;;;-4.12;69.20
39223;BME280;24936;46.328;11.026;2023-03-16T06:26:17;94606.16;;;-3.75;66.53
39223;BME280;24936;46.328;11.026;2023-03-16T06:28:42;94608.94;;;-3.55;65.64
39223;BME280;24936;46.328;11.026;2023-03-16T06:31:07;94614.44;;;-3.65;67.39
39223;BME280;24936;46.328;11.026;2023-03-16T06:33:33;94614.28;;;-3.61;66.04
39223;BME280;24936;46.328;11.026;2023-03-16T06:35:58;94619.28;;;-3.56;66.76
39223;BME280;24936;46.328;11.026;2023-03-16T06:38:23;94619.66;;;-3.42;65.06
39223;BME280;24936;46.328;11.026;2023-03-16T06:40:52;94625.47;;;-3.36;64.51
39223;BME280;24936;46.328;11.026;2023-03-16T06:43:18;94616.41;;;-3.21;64.29
39223;BME280;24936;46.328;11.026;2023-03-16T06:45:43;94619.72;;;-2.94;62.29
39223;BME280;24936;46.328;11.026;2023-03-16T06:48:09;94614.56;;;-2.94;61.32
39223;BME280;24936;46.328;11.026;2023-03-16T06:50:35;94623.88;;;-2.66;60.76
39223;BME280;24936;46.328;11.026;2023-03-16T06:53:00;94627.47;;;-2.47;60.03
39223;BME280;24936;46.328;11.026;2023-03-16T06:55:26;94629.53;;;-2.56;60.93
39223;BME280;24936;46.328;11.026;2023-03-16T06:57:51;94631.25;;;-2.33;57.58
39223;BME280;24936;46.328;11.026;2023-03-16T07:00:16;94629.75;;;-1.94;55.60
39223;BME280;24936;46.328;11.026;2023-03-16T07:02:42;94638.94;;;-2.09;57.07
39223;BME280;24936;46.328;11.026;2023-03-16T07:05:08;94643.28;;;-2.10;57.10
39223;BME280;24936;46.328;11.026;2023-03-16T07:07:38;94639.47;;;-2.01;54.73
39223;BME280;24936;46.328;11.026;2023-03-16T07:10:03;94640.56;;;-2.07;56.82
39223;BME280;24936;46.328;11.026;2023-03-16T07:12:29;94645.72;;;-1.85;59.07
39223;BME280;24936;46.328;11.026;2023-03-16T07:14:54;94651.44;;;-1.76;59.48
39223;BME280;24936;46.328;11.026;2023-03-16T07:17:19;94648.25;;;-1.83;60.27
39223;BME280;24936;46.328;11.026;2023-03-16T07:19:45;94648.41;;;-1.88;59.24
39223;BME280;24936;46.328;11.026;2023-03-16T07:22:11;94654.97;;;-1.79;60.71
39223;BME280;24936;46.328;11.026;2023-03-16T07:24:36;94659.19;;;-1.76;59.96
39223;BME280;24936;46.328;11.026;2023-03-16T07:27:02;94660.69;;;-1.71;59.43
39223;BME280;24936;46.328;11.026;2023-03-16T07:29:27;94662.47;;;-1.73;58.52
39223;BME280;24936;46.328;11.026;2023-03-16T07:31:53;94660.41;;;-1.64;58.23
39223;BME280;24936;46.328;11.026;2023-03-16T07:34:19;94665.31;;;-1.36;55.43
39223;BME280;24936;46.328;11.026;2023-03-16T07:36:45;94663.63;;;-1.37;54.59
39223;BME280;24936;46.328;11.026;2023-03-16T07:39:15;94665.38;;;-1.17;51.60
39223;BME280;24936;46.328;11.026;2023-03-16T07:41:42;94652.97;;;-0.88;54.47
39223;BME280;24936;46.328;11.026;2023-03-16T07:44:08;94655.19;;;-0.59;56.56
39223;BME280;24936;46.328;11.026;2023-03-16T07:46:33;94654.72;;;-0.49;55.87
39223;BME280;24936;46.328;11.026;2023-03-16T07:48:58;94645.28;;;-0.31;55.10
39223;BME280;24936;46.328;11.026;2023-03-16T07:51:24;94654.66;;;-0.09;53.64
39223;BME280;24936;46.328;11.026;2023-03-16T07:53:49;94647.09;;;0.06;55.52
39223;BME280;24936;46.328;11.026;2023-03-16T07:56:14;94654.81;;;0.25;48.65
39223;BME280;24936;46.328;11.026;2023-03-16T07:58:40;94661.88;;;0.40;51.01
39223;BME280;24936;46.328;11.026;2023-03-16T08:01:43;94651.75;;;0.53;50.56
39223;BME280;24936;46.328;11.026;2023-03-16T08:04:10;94662.34;;;0.66;52.87
39223;BME280;24936;46.328;11.026;2023-03-16T08:06:36;94659.38;;;0.74;47.10
39223;BME280;24936;46.328;11.026;2023-03-16T08:09:02;94658.16;;;0.81;52.18
39223;BME280;24936;46.328;11.026;2023-03-16T08:11:27;94650.91;;;1.23;53.09
39223;BME280;24936;46.328;11.026;2023-03-16T08:13:53;94658.34;;;1.63;50.34
39223;BME280;24936;46.328;11.026;2023-03-16T08:16:21;94672.41;;;1.59;51.13
39223;BME280;24936;46.328;11.026;2023-03-16T08:21:44;94659.88;;;2.31;42.23
39223;BME280;24936;46.328;11.026;2023-03-16T08:24:10;94655.72;;;3.20;39.85
39223;BME280;24936;46.328;11.026;2023-03-16T08:26:35;94658.47;;;3.47;36.27
39223;BME280;24936;46.328;11.026;2023-03-16T08:29:01;94655.47;;;3.54;38.74
39223;BME280;24936;46.328;11.026;2023-03-16T08:31:28;94652.97;;;3.81;36.90
39223;BME280;24936;46.328;11.026;2023-03-16T08:33:56;94650.81;;;4.02;37.24
39223;BME280;24936;46.328;11.026;2023-03-16T08:36:22;94647.59;;;4.53;38.21
39223;BME280;24936;46.328;11.026;2023-03-16T08:38:48;94646.28;;;4.61;37.47
39223;BME280;24936;46.328;11.026;2023-03-16T08:41:16;94651.31;;;4.64;38.09
39223;BME280;24936;46.328;11.026;2023-03-16T08:43:42;94654.06;;;3.91;37.23
39223;BME280;24936;46.328;11.026;2023-03-16T08:46:11;94655.53;;;4.52;37.39
39223;BME280;24936;46.328;11.026;2023-03-16T08:48:38;94651.44;;;5.54;36.38
39223;BME280;24936;46.328;11.026;2023-03-16T08:51:05;94648.41;;;5.22;35.95
39223;BME280;24936;46.328;11.026;2023-03-16T08:53:31;94650.31;;;4.79;37.35
39223;BME280;24936;46.328;11.026;2023-03-16T08:56:12;94648.41;;;4.81;37.95
39223;BME280;24936;46.328;11.026;2023-03-16T08:58:40;94656.72;;;5.01;36.15
39223;BME280;24936;46.328;11.026;2023-03-16T09:11:53;94659.56;;;8.93;30.22
39223;BME280;24936;46.328;11.026;2023-03-16T09:14:24;94658.56;;;9.38;28.88
39223;BME280;24936;46.328;11.026;2023-03-16T09:17:06;94654.25;;;10.51;28.20
39223;BME280;24936;46.328;11.026;2023-03-16T09:19:35;94661.72;;;10.15;27.17
39223;BME280;24936;46.328;11.026;2023-03-16T09:22:03;94654.75;;;11.06;26.13
39223;BME280;24936;46.328;11.026;2023-03-16T09:24:52;94664.75;;;12.08;25.91
39223;BME280;24936;46.328;11.026;2023-03-16T09:27:57;94655.88;;;12.10;23.37
39223;BME280;24936;46.328;11.026;2023-03-16T09:30:59;94650.13;;;12.24;23.20
39223;BME280;24936;46.328;11.026;2023-03-16T09:33:58;94658.22;;;13.14;23.63
39223;BME280;24936;46.328;11.026;2023-03-16T09:36:24;94659.13;;;12.21;23.50
39223;BME280;24936;46.328;11.026;2023-03-16T09:38:51;94659.34;;;12.66;22.42
39223;BME280;24936;46.328;11.026;2023-03-16T10:02:04;94644.41;;;14.18;20.33
39223;BME280;24936;46.328;11.026;2023-03-16T10:04:48;94640.81;;;14.62;20.66
39223;BME280;24936;46.328;11.026;2023-03-16T10:07:39;94631.28;;;14.43;19.85
39223;BME280;24936;46.328;11.026;2023-03-16T10:12:41;94631.19;;;15.45;18.27
39223;BME280;24936;46.328;11.026;2023-03-16T10:15:24;94628.84;;;16.08;18.74
39223;BME280;24936;46.328;11.026;2023-03-16T10:18:17;94624.28;;;16.73;17.19
39223;BME280;24936;46.328;11.026;2023-03-16T10:20:45;94626.22;;;15.92;19.35
39223;BME280;24936;46.328;11.026;2023-03-16T10:23:17;94626.22;;;15.92;20.30
39223;BME280;24936;46.328;11.026;2023-03-16T10:25:48;94621.75;;;15.67;20.74
39223;BME280;24936;46.328;11.026;2023-03-16T10:28:24;94618.44;;;16.78;17.41
39223;BME280;24936;46.328;11.026;2023-03-16T10:30:59;94614.84;;;16.71;17.24
39223;BME280;24936;46.328;11.026;2023-03-16T10:33:28;94621.78;;;14.66;19.60
39223;BME280;24936;46.328;11.026;2023-03-16T10:36:02;94614.00;;;14.14;20.33
39223;BME280;24936;46.328;11.026;2023-03-16T10:38:33;94616.72;;;14.73;22.85
39223;BME280;24936;46.328;11.026;2023-03-16T10:43:43;94608.06;;;14.28;21.36
39223;BME280;24936;46.328;11.026;2023-03-16T10:46:09;94612.94;;;15.01;20.70
39223;BME280;24936;46.328;11.026;2023-03-16T10:48:37;94608.50;;;15.26;21.97
39223;BME280;24936;46.328;11.026;2023-03-16T10:51:07;94601.81;;;14.80;19.58
39223;BME280;24936;46.328;11.026;2023-03-16T10:53:42;94601.38;;;15.10;21.16
39223;BME280;24936;46.328;11.026;2023-03-16T10:56:22;94602.25;;;14.25;19.49
39223;BME280;24936;46.328;11.026;2023-03-16T10:58:50;94605.19;;;13.79;19.98
39223;BME280;24936;46.328;11.026;2023-03-16T11:01:26;94594.50;;;14.23;22.55
39223;BME280;24936;46.328;11.026;2023-03-16T11:03:58;94599.94;;;14.21;19.87
39223;BME280;24936;46.328;11.026;2023-03-16T11:06:27;94601.66;;;13.96;20.18
39223;BME280;24936;46.328;11.026;2023-03-16T11:09:05;94601.41;;;14.16;22.17
39223;BME280;24936;46.328;11.026;2023-03-16T11:11:34;94597.84;;;13.72;20.17
39223;BME280;24936;46.328;11.026;2023-03-16T11:14:21;94599.16;;;12.69;20.30
39223;BME280;24936;46.328;11.026;2023-03-16T11:17:02;94603.66;;;13.50;22.16
39223;BME280;24936;46.328;11.026;2023-03-16T11:19:57;94588.66;;;13.14;20.22
39223;BME280;24936;46.328;11.026;2023-03-16T11:22:30;94587.81;;;13.76;22.33
39223;BME280;24936;46.328;11.026;2023-03-16T11:27:24;94590.47;;;14.11;19.48
39223;BME280;24936;46.328;11.026;2023-03-16T11:32:51;94585.78;;;14.90;20.91
39223;BME280;24936;46.328;11.026;2023-03-16T11:35:46;94576.56;;;14.51;21.18
39223;BME280;24936;46.328;11.026;2023-03-16T11:46:26;94563.19;;;13.31;22.34
39223;BME280;24936;46.328;11.026;2023-03-16T11:54:30;94555.41;;;14.17;20.40
39223;BME280;24936;46.328;11.026;2023-03-16T11:57:06;94541.28;;;14.43;22.44
39223;BME280;24936;46.328;11.026;2023-03-16T11:59:44;94539.53;;;14.68;21.57
39223;BME280;24936;46.328;11.026;2023-03-16T12:02:35;94537.34;;;14.55;21.66
39223;BME280;24936;46.328;11.026;2023-03-16T12:05:22;94524.00;;;14.81;24.00
39223;BME280;24936;46.328;11.026;2023-03-16T12:08:20;94524.44;;;15.59;21.76
39223;BME280;24936;46.328;11.026;2023-03-16T12:11:06;94528.44;;;13.70;21.86
39223;BME280;24936;46.328;11.026;2023-03-16T12:16:25;94518.97;;;14.02;21.25
39223;BME280;24936;46.328;11.026;2023-03-16T12:19:04;94515.91;;;14.15;23.47
39223;BME280;24936;46.328;11.026;2023-03-16T12:21:41;94505.41;;;15.56;20.76
39223;BME280;24936;46.328;11.026;2023-03-16T12:24:24;94501.78;;;16.05;20.15
39223;BME280;24936;46.328;11.026;2023-03-16T12:26:52;94497.34;;;14.99;20.74
39223;BME280;24936;46.328;11.026;2023-03-16T12:29:40;94497.44;;;13.89;24.40
39223;BME280;24936;46.328;11.026;2023-03-16T12:32:31;94498.72;;;13.76;23.66
39223;BME280;24936;46.328;11.026;2023-03-16T12:35:15;94486.06;;;14.64;23.18
39223;BME280;24936;46.328;11.026;2023-03-16T12:40:33;94484.88;;;13.83;24.08
39223;BME280;24936;46.328;11.026;2023-03-16T12:43:15;94480.88;;;13.44;22.86
39223;BME280;24936;46.328;11.026;2023-03-16T12:46:03;94482.28;;;13.99;24.72
39223;BME280;24936;46.328;11.026;2023-03-16T12:48:37;94481.63;;;13.36;22.91
39223;BME280;24936;46.328;11.026;2023-03-16T12:51:04;94480.63;;;13.98;24.27
39223;BME280;24936;46.328;11.026;2023-03-16T12:53:53;94482.31;;;14.16;21.35
39223;BME280;24936;46.328;11.026;2023-03-16T12:56:30;94486.78;;;13.72;23.17
39223;BME280;24936;46.328;11.026;2023-03-16T12:58:59;94486.53;;;13.84;22.97
39223;BME280;24936;46.328;11.026;2023-03-16T13:01:36;94476.13;;;14.66;23.19
39223;BME280;24936;46.328;11.026;2023-03-16T13:04:10;94472.78;;;14.56;23.81
39223;BME280;24936;46.328;11.026;2023-03-16T13:06:42;94472.78;;;14.40;21.45
39223;BME280;24936;46.328;11.026;2023-03-16T13:09:10;94473.38;;;14.17;21.96
39223;BME280;24936;46.328;11.026;2023-03-16T13:11:44;94477.75;;;14.59;24.04
39223;BME280;24936;46.328;11.026;2023-03-16T13:19:43;94466.47;;;14.32;21.89
39223;BME280;24936;46.328;11.026;2023-03-16T13:22:30;94440.03;;;13.81;23.14
39223;BME280;24936;46.328;11.026;2023-03-16T13:25:21;94450.94;;;14.46;26.37
39223;BME280;24936;46.328;11.026;2023-03-16T13:27:50;94449.34;;;14.78;23.18
39223;BME280;24936;46.328;11.026;2023-03-16T13:30:30;94454.06;;;14.25;23.20
39223;BME280;24936;46.328;11.026;2023-03-16T13:33:23;94441.22;;;15.04;23.26
39223;BME280;24936;46.328;11.026;2023-03-16T13:35:52;94441.75;;;13.90;22.06
39223;BME280;24936;46.328;11.026;2023-03-16T13:38:23;94454.78;;;14.60;23.57
39223;BME280;24936;46.328;11.026;2023-03-16T13:41:04;94441.34;;;14.36;21.90
39223;BME280;24936;46.328;11.026;2023-03-16T13:43:37;94433.16;;;13.97;22.89
39223;BME280;24936;46.328;11.026;2023-03-16T13:46:21;94436.53;;;13.64;22.54
39223;BME280;24936;46.328;11.026;2023-03-16T13:48:51;94425.44;;;13.60;22.83
39223;BME280;24936;46.328;11.026;2023-03-16T13:51:19;94429.25;;;13.66;22.78
39223;BME280;24936;46.328;11.026;2023-03-16T13:53:47;94440.75;;;13.49;25.24
39223;BME280;24936;46.328;11.026;2023-03-16T13:56:21;94420.47;;;14.17;27.02
39223;BME280;24936;46.328;11.026;2023-03-16T13:58:49;94426.31;;;13.77;21.47
39223;BME280;24936;46.328;11.026;2023-03-16T14:01:24;94420.66;;;14.40;22.11
39223;BME280;24936;46.328;11.026;2023-03-16T14:03:51;94419.66;;;14.49;22.37
39223;BME280;24936;46.328;11.026;2023-03-16T14:06:25;94415.63;;;13.96;23.56
39223;BME280;24936;46.328;11.026;2023-03-16T14:08:55;94425.34;;;13.79;25.23
39223;BME280;24936;46.328;11.026;2023-03-16T14:11:22;94416.66;;;13.25;23.84
39223;BME280;24936;46.328;11.026;2023-03-16T14:13:57;94408.28;;;13.38;24.53
39223;BME280;24936;46.328;11.026;2023-03-16T14:16:26;94414.13;;;13.93;25.20
39223;BME280;24936;46.328;11.026;2023-03-16T14:19:07;94412.53;;;13.31;24.34
39223;BME280;24936;46.328;11.026;2023-03-16T14:21:42;94416.72;;;13.07;23.72
39223;BME280;24936;46.328;11.026;2023-03-16T14:24:28;94417.41;;;13.09;27.00
39223;BME280;24936;46.328;11.026;2023-03-16T14:26:55;94412.16;;;13.18;25.09
39223;BME280;24936;46.328;11.026;2023-03-16T14:29:30;94409.94;;;12.78;24.35
39223;BME280;24936;46.328;11.026;2023-03-16T14:31:56;94412.94;;;13.10;24.96
39223;BME280;24936;46.328;11.026;2023-03-16T14:34:37;94413.66;;;12.94;24.13